Theodore, Alabama
Current Conditions -  °F | °C
As of 6:39 AM on Sunday 21 Dec 2014 (Local Time) from KBFM Reporting Station
Overcast Overcast  
Wind Chill: 52°   Ceiling: 3000
Heat Index: 52°   Visibility: 10mi
Dew Point: 49°   Wind: 7mph
Humidity: 89%   Direction: 360°N
Pressure: 30.13"   Gusts: NA
Location:  30.55°N, 88.18°W
Report Text: KBFM 211239Z AUTO 36006KT 10SM FEW009 OVC030 11/09 A3013 RMK AO2 T01110094
Loading
Personal Weather Stations






























Interactive Weather Map New forecast layout! Learn more

10-Day Weather Forecast

Advertisements
Track Severe Weather on mobile